sensor_id;sensor_type;location;lat;lon;timestamp;noise_LAeq;noise_LA_min;noise_LA_max;noise_LA01;noise_LA95
82130;Laerm;75912;50.450;9.816;2024-01-30T00:01:41;58.60;36.67;75.05;;
82130;Laerm;75912;50.450;9.816;2024-01-30T00:04:06;48.18;36.64;65.03;;
82130;Laerm;75912;50.450;9.816;2024-01-30T00:06:32;47.41;36.53;63.52;;
82130;Laerm;75912;50.450;9.816;2024-01-30T00:08:57;57.47;36.88;73.60;;
82130;Laerm;75912;50.450;9.816;2024-01-30T00:11:22;37.96;36.73;42.89;;
82130;Laerm;75912;50.450;9.816;2024-01-30T00:13:50;57.12;36.51;75.72;;
82130;Laerm;75912;50.450;9.816;2024-01-30T00:16:22;45.33;36.53;61.58;;
82130;Laerm;75912;50.450;9.816;2024-01-30T00:18:49;54.55;36.44;70.94;;
82130;Laerm;75912;50.450;9.816;2024-01-30T00:21:14;49.42;36.59;66.90;;
82130;Laerm;75912;50.450;9.816;2024-01-30T00:23:39;37.57;36.21;41.74;;
82130;Laerm;75912;50.450;9.816;2024-01-30T00:26:04;37.40;36.30;39.11;;
82130;Laerm;75912;50.450;9.816;2024-01-30T00:28:31;54.17;36.69;69.86;;
82130;Laerm;75912;50.450;9.816;2024-01-30T00:30:56;52.59;36.62;70.86;;
82130;Laerm;75912;50.450;9.816;2024-01-30T00:33:21;37.50;36.34;38.92;;
82130;Laerm;75912;50.450;9.816;2024-01-30T00:35:47;52.88;36.86;70.35;;
82130;Laerm;75912;50.450;9.816;2024-01-30T00:38:12;56.68;37.09;74.86;;
82130;Laerm;75912;50.450;9.816;2024-01-30T00:40:37;55.95;36.80;74.00;;
82130;Laerm;75912;50.450;9.816;2024-01-30T00:43:03;59.29;37.43;76.01;;
82130;Laerm;75912;50.450;9.816;2024-01-30T00:45:28;58.94;37.36;75.00;;
82130;Laerm;75912;50.450;9.816;2024-01-30T00:47:53;37.83;36.59;41.79;;
82130;Laerm;75912;50.450;9.816;2024-01-30T00:50:19;55.05;36.50;73.42;;
82130;Laerm;75912;50.450;9.816;2024-01-30T00:52:45;55.13;36.20;74.80;;
82130;Laerm;75912;50.450;9.816;2024-01-30T00:55:10;51.98;36.43;69.02;;
82130;Laerm;75912;50.450;9.816;2024-01-30T00:57:36;37.41;36.35;38.65;;
82130;Laerm;75912;50.450;9.816;2024-01-30T01:00:01;37.38;36.13;38.29;;
82130;Laerm;75912;50.450;9.816;2024-01-30T01:02:26;37.60;36.58;39.90;;
82130;Laerm;75912;50.450;9.816;2024-01-30T01:04:52;37.59;36.43;38.75;;
82130;Laerm;75912;50.450;9.816;2024-01-30T01:07:17;54.48;36.56;72.24;;
82130;Laerm;75912;50.450;9.816;2024-01-30T01:09:42;54.35;36.78;73.16;;
82130;Laerm;75912;50.450;9.816;2024-01-30T01:12:08;37.60;36.43;39.83;;
82130;Laerm;75912;50.450;9.816;2024-01-30T01:14:33;55.16;36.62;73.27;;
82130;Laerm;75912;50.450;9.816;2024-01-30T01:16:58;52.86;36.68;69.79;;
82130;Laerm;75912;50.450;9.816;2024-01-30T01:19:23;53.44;36.45;68.19;;
82130;Laerm;75912;50.450;9.816;2024-01-30T01:21:49;37.66;36.37;43.10;;
82130;Laerm;75912;50.450;9.816;2024-01-30T01:24:14;40.57;36.75;60.28;;
82130;Laerm;75912;50.450;9.816;2024-01-30T01:26:39;60.76;36.78;78.32;;
82130;Laerm;75912;50.450;9.816;2024-01-30T01:29:05;55.35;37.14;73.29;;
82130;Laerm;75912;50.450;9.816;2024-01-30T01:31:35;56.75;37.40;73.59;;
82130;Laerm;75912;50.450;9.816;2024-01-30T01:34:04;50.01;36.41;68.57;;
82130;Laerm;75912;50.450;9.816;2024-01-30T01:36:30;51.08;36.73;65.67;;
82130;Laerm;75912;50.450;9.816;2024-01-30T01:38:55;37.85;36.71;39.02;;
82130;Laerm;75912;50.450;9.816;2024-01-30T01:41:20;51.54;36.60;68.77;;
82130;Laerm;75912;50.450;9.816;2024-01-30T01:43:45;58.73;37.02;75.37;;
82130;Laerm;75912;50.450;9.816;2024-01-30T01:46:11;56.50;37.04;72.18;;
82130;Laerm;75912;50.450;9.816;2024-01-30T01:48:36;50.09;36.09;65.49;;
82130;Laerm;75912;50.450;9.816;2024-01-30T01:51:02;37.70;36.41;38.98;;
82130;Laerm;75912;50.450;9.816;2024-01-30T01:53:27;37.47;36.33;38.71;;
82130;Laerm;75912;50.450;9.816;2024-01-30T01:55:53;37.44;36.37;39.40;;
82130;Laerm;75912;50.450;9.816;2024-01-30T01:58:19;58.66;37.02;74.12;;
82130;Laerm;75912;50.450;9.816;2024-01-30T02:00:45;58.09;36.86;75.54;;
82130;Laerm;75912;50.450;9.816;2024-01-30T02:03:11;39.38;36.73;51.05;;
82130;Laerm;75912;50.450;9.816;2024-01-30T02:05:37;55.25;36.65;72.61;;
82130;Laerm;75912;50.450;9.816;2024-01-30T02:08:03;51.88;36.71;70.44;;
82130;Laerm;75912;50.450;9.816;2024-01-30T02:10:29;37.84;36.82;39.52;;
82130;Laerm;75912;50.450;9.816;2024-01-30T02:12:54;56.98;36.85;75.74;;
82130;Laerm;75912;50.450;9.816;2024-01-30T02:15:19;55.19;36.64;72.68;;
82130;Laerm;75912;50.450;9.816;2024-01-30T02:17:44;37.57;36.41;39.30;;
82130;Laerm;75912;50.450;9.816;2024-01-30T02:20:10;53.19;36.44;71.74;;
82130;Laerm;75912;50.450;9.816;2024-01-30T02:22:35;39.09;36.88;52.00;;
82130;Laerm;75912;50.450;9.816;2024-01-30T02:25:01;55.29;36.40;74.54;;
82130;Laerm;75912;50.450;9.816;2024-01-30T02:27:26;38.80;36.57;45.79;;
82130;Laerm;75912;50.450;9.816;2024-01-30T02:29:52;54.19;36.64;70.19;;
82130;Laerm;75912;50.450;9.816;2024-01-30T02:32:17;58.01;37.16;73.49;;
82130;Laerm;75912;50.450;9.816;2024-01-30T02:34:42;49.48;36.76;68.55;;
82130;Laerm;75912;50.450;9.816;2024-01-30T02:37:08;56.71;36.98;75.01;;
82130;Laerm;75912;50.450;9.816;2024-01-30T02:39:34;55.19;37.24;72.12;;
82130;Laerm;75912;50.450;9.816;2024-01-30T02:41:59;49.60;36.84;66.55;;
82130;Laerm;75912;50.450;9.816;2024-01-30T02:44:24;56.61;37.52;71.50;;
82130;Laerm;75912;50.450;9.816;2024-01-30T02:46:49;58.44;37.08;73.75;;
82130;Laerm;75912;50.450;9.816;2024-01-30T02:49:15;51.54;37.04;66.68;;
82130;Laerm;75912;50.450;9.816;2024-01-30T02:51:40;55.94;36.70;73.04;;
82130;Laerm;75912;50.450;9.816;2024-01-30T02:54:05;56.66;37.15;76.03;;
82130;Laerm;75912;50.450;9.816;2024-01-30T02:56:31;37.87;36.67;39.82;;
82130;Laerm;75912;50.450;9.816;2024-01-30T02:58:56;54.51;36.85;71.86;;
82130;Laerm;75912;50.450;9.816;2024-01-30T03:01:21;49.95;36.57;68.63;;
82130;Laerm;75912;50.450;9.816;2024-01-30T03:03:46;39.96;36.58;57.37;;
82130;Laerm;75912;50.450;9.816;2024-01-30T03:06:12;48.60;37.33;66.94;;
82130;Laerm;75912;50.450;9.816;2024-01-30T03:08:37;61.82;38.51;73.33;;
82130;Laerm;75912;50.450;9.816;2024-01-30T03:11:02;38.05;36.75;41.25;;
82130;Laerm;75912;50.450;9.816;2024-01-30T03:13:28;51.53;37.35;68.31;;
82130;Laerm;75912;50.450;9.816;2024-01-30T03:15:53;57.87;37.36;75.84;;
82130;Laerm;75912;50.450;9.816;2024-01-30T03:18:18;57.50;37.21;72.79;;
82130;Laerm;75912;50.450;9.816;2024-01-30T03:20:43;58.02;37.77;74.30;;
82130;Laerm;75912;50.450;9.816;2024-01-30T03:23:09;58.92;38.02;79.65;;
82130;Laerm;75912;50.450;9.816;2024-01-30T03:25:34;55.71;37.21;72.32;;
82130;Laerm;75912;50.450;9.816;2024-01-30T03:27:59;57.86;37.17;74.48;;
82130;Laerm;75912;50.450;9.816;2024-01-30T03:30:24;56.24;37.05;74.28;;
82130;Laerm;75912;50.450;9.816;2024-01-30T03:32:50;56.20;37.27;71.28;;
82130;Laerm;75912;50.450;9.816;2024-01-30T03:35:15;59.33;38.11;72.30;;
82130;Laerm;75912;50.450;9.816;2024-01-30T03:37:40;58.53;37.55;73.25;;
82130;Laerm;75912;50.450;9.816;2024-01-30T03:40:06;38.70;36.86;43.58;;
82130;Laerm;75912;50.450;9.816;2024-01-30T03:42:31;59.48;37.45;71.95;;
82130;Laerm;75912;50.450;9.816;2024-01-30T03:44:57;53.71;37.41;72.54;;
82130;Laerm;75912;50.450;9.816;2024-01-30T03:47:22;60.03;38.12;73.93;;
82130;Laerm;75912;50.450;9.816;2024-01-30T03:49:47;53.09;36.92;71.13;;
82130;Laerm;75912;50.450;9.816;2024-01-30T03:52:12;60.71;37.81;80.35;;
82130;Laerm;75912;50.450;9.816;2024-01-30T03:54:38;50.23;36.85;66.18;;
82130;Laerm;75912;50.450;9.816;2024-01-30T03:57:03;57.89;38.67;72.00;;
82130;Laerm;75912;50.450;9.816;2024-01-30T03:59:29;55.58;37.99;70.98;;
82130;Laerm;75912;50.450;9.816;2024-01-30T04:01:54;62.32;38.13;76.97;;
82130;Laerm;75912;50.450;9.816;2024-01-30T04:04:19;58.34;37.52;72.05;;
82130;Laerm;75912;50.450;9.816;2024-01-30T04:06:45;52.53;37.13;70.40;;
82130;Laerm;75912;50.450;9.816;2024-01-30T04:09:10;55.47;37.69;73.06;;
82130;Laerm;75912;50.450;9.816;2024-01-30T04:11:36;57.80;38.07;74.06;;
82130;Laerm;75912;50.450;9.816;2024-01-30T04:14:01;61.80;39.26;73.28;;
82130;Laerm;75912;50.450;9.816;2024-01-30T04:16:26;59.67;38.59;76.68;;
82130;Laerm;75912;50.450;9.816;2024-01-30T04:18:52;56.55;38.11;72.08;;
82130;Laerm;75912;50.450;9.816;2024-01-30T04:21:17;60.62;38.80;74.04;;
82130;Laerm;75912;50.450;9.816;2024-01-30T04:23:42;58.17;38.77;73.77;;
82130;Laerm;75912;50.450;9.816;2024-01-30T04:26:08;58.63;37.65;72.92;;
82130;Laerm;75912;50.450;9.816;2024-01-30T04:28:33;51.30;36.72;65.87;;
82130;Laerm;75912;50.450;9.816;2024-01-30T04:30:58;57.39;37.93;71.68;;
82130;Laerm;75912;50.450;9.816;2024-01-30T04:33:24;61.76;40.57;76.79;;
82130;Laerm;75912;50.450;9.816;2024-01-30T04:35:49;58.99;37.50;73.49;;
82130;Laerm;75912;50.450;9.816;2024-01-30T04:38:14;58.27;38.11;71.88;;
82130;Laerm;75912;50.450;9.816;2024-01-30T04:40:40;60.10;37.86;76.72;;
82130;Laerm;75912;50.450;9.816;2024-01-30T04:43:05;60.05;40.07;72.43;;
82130;Laerm;75912;50.450;9.816;2024-01-30T04:45:30;53.12;37.86;70.36;;
82130;Laerm;75912;50.450;9.816;2024-01-30T04:47:56;56.39;38.13;73.37;;
82130;Laerm;75912;50.450;9.816;2024-01-30T04:50:21;60.80;40.20;75.19;;
82130;Laerm;75912;50.450;9.816;2024-01-30T04:52:46;60.32;39.28;74.82;;
82130;Laerm;75912;50.450;9.816;2024-01-30T04:55:12;54.82;37.89;72.07;;
82130;Laerm;75912;50.450;9.816;2024-01-30T04:57:37;58.76;40.54;71.00;;
82130;Laerm;75912;50.450;9.816;2024-01-30T05:00:02;62.66;39.68;75.45;;
82130;Laerm;75912;50.450;9.816;2024-01-30T05:02:28;58.33;38.33;71.94;;
82130;Laerm;75912;50.450;9.816;2024-01-30T05:04:53;60.94;38.81;71.65;;
82130;Laerm;75912;50.450;9.816;2024-01-30T05:07:19;59.70;39.89;72.02;;
82130;Laerm;75912;50.450;9.816;2024-01-30T05:09:44;61.25;39.35;76.68;;
82130;Laerm;75912;50.450;9.816;2024-01-30T05:12:09;59.11;38.64;74.69;;
82130;Laerm;75912;50.450;9.816;2024-01-30T05:14:35;54.33;38.53;67.92;;
82130;Laerm;75912;50.450;9.816;2024-01-30T05:17:00;60.55;38.58;71.66;;
82130;Laerm;75912;50.450;9.816;2024-01-30T05:19:28;61.35;41.07;72.83;;
82130;Laerm;75912;50.450;9.816;2024-01-30T05:21:53;59.68;38.18;69.71;;
82130;Laerm;75912;50.450;9.816;2024-01-30T05:24:18;59.43;39.35;72.36;;
82130;Laerm;75912;50.450;9.816;2024-01-30T05:26:44;60.22;37.76;72.14;;
82130;Laerm;75912;50.450;9.816;2024-01-30T05:29:09;59.15;41.39;72.75;;
82130;Laerm;75912;50.450;9.816;2024-01-30T05:31:34;62.18;43.55;73.21;;
82130;Laerm;75912;50.450;9.816;2024-01-30T05:34:00;63.81;42.28;74.62;;
82130;Laerm;75912;50.450;9.816;2024-01-30T05:36:28;57.93;38.65;68.14;;
82130;Laerm;75912;50.450;9.816;2024-01-30T05:38:53;60.73;38.40;73.52;;
82130;Laerm;75912;50.450;9.816;2024-01-30T05:41:19;62.47;43.27;73.40;;
82130;Laerm;75912;50.450;9.816;2024-01-30T05:43:46;61.88;40.49;74.92;;
82130;Laerm;75912;50.450;9.816;2024-01-30T05:46:11;60.11;39.91;71.24;;
82130;Laerm;75912;50.450;9.816;2024-01-30T05:48:36;59.07;39.76;73.48;;
82130;Laerm;75912;50.450;9.816;2024-01-30T05:51:01;61.50;43.76;73.30;;
82130;Laerm;75912;50.450;9.816;2024-01-30T05:53:27;60.57;41.82;73.68;;
82130;Laerm;75912;50.450;9.816;2024-01-30T05:55:53;61.10;39.92;74.94;;
82130;Laerm;75912;50.450;9.816;2024-01-30T05:58:18;62.93;41.25;76.30;;
82130;Laerm;75912;50.450;9.816;2024-01-30T06:00:43;61.44;40.00;73.08;;
82130;Laerm;75912;50.450;9.816;2024-01-30T06:03:09;60.53;39.11;72.66;;
82130;Laerm;75912;50.450;9.816;2024-01-30T06:05:34;55.83;39.15;70.26;;
82130;Laerm;75912;50.450;9.816;2024-01-30T06:07:59;65.07;44.79;74.50;;
82130;Laerm;75912;50.450;9.816;2024-01-30T06:10:25;61.29;39.09;72.18;;
82130;Laerm;75912;50.450;9.816;2024-01-30T06:12:50;58.50;38.48;74.06;;
82130;Laerm;75912;50.450;9.816;2024-01-30T06:15:15;62.10;42.62;74.49;;
82130;Laerm;75912;50.450;9.816;2024-01-30T06:17:40;61.91;42.17;73.23;;
82130;Laerm;75912;50.450;9.816;2024-01-30T06:20:06;63.45;42.78;73.15;;
82130;Laerm;75912;50.450;9.816;2024-01-30T06:22:31;59.64;41.72;71.96;;
82130;Laerm;75912;50.450;9.816;2024-01-30T06:24:57;62.53;40.81;74.21;;
82130;Laerm;75912;50.450;9.816;2024-01-30T06:27:22;61.22;40.26;71.17;;
82130;Laerm;75912;50.450;9.816;2024-01-30T06:29:47;61.74;40.16;76.86;;
82130;Laerm;75912;50.450;9.816;2024-01-30T06:32:12;64.28;46.42;78.33;;
82130;Laerm;75912;50.450;9.816;2024-01-30T06:34:38;60.70;40.64;70.62;;
82130;Laerm;75912;50.450;9.816;2024-01-30T06:37:05;62.64;43.74;74.19;;
82130;Laerm;75912;50.450;9.816;2024-01-30T06:39:30;64.17;45.61;73.06;;
82130;Laerm;75912;50.450;9.816;2024-01-30T06:41:55;61.17;41.46;72.94;;
82130;Laerm;75912;50.450;9.816;2024-01-30T06:44:20;60.06;40.02;70.47;;
82130;Laerm;75912;50.450;9.816;2024-01-30T06:46:46;61.38;41.75;72.96;;
82130;Laerm;75912;50.450;9.816;2024-01-30T06:49:11;60.94;42.31;73.06;;
82130;Laerm;75912;50.450;9.816;2024-01-30T06:51:36;62.04;46.00;72.58;;
82130;Laerm;75912;50.450;9.816;2024-01-30T06:54:02;63.54;44.38;76.78;;
82130;Laerm;75912;50.450;9.816;2024-01-30T06:56:27;61.58;42.81;72.54;;
82130;Laerm;75912;50.450;9.816;2024-01-30T06:58:53;61.47;42.18;73.87;;
82130;Laerm;75912;50.450;9.816;2024-01-30T07:01:18;60.96;41.02;72.29;;
82130;Laerm;75912;50.450;9.816;2024-01-30T07:03:43;61.13;41.83;80.39;;
82130;Laerm;75912;50.450;9.816;2024-01-30T07:06:09;59.52;40.04;73.41;;
82130;Laerm;75912;50.450;9.816;2024-01-30T07:08:35;60.61;38.70;75.32;;
82130;Laerm;75912;50.450;9.816;2024-01-30T07:11:02;61.50;39.48;74.09;;
82130;Laerm;75912;50.450;9.816;2024-01-30T07:13:27;61.08;40.79;73.53;;
82130;Laerm;75912;50.450;9.816;2024-01-30T07:15:53;62.65;40.73;76.08;;
82130;Laerm;75912;50.450;9.816;2024-01-30T07:18:18;62.37;43.32;73.98;;
82130;Laerm;75912;50.450;9.816;2024-01-30T07:20:43;60.49;41.31;71.90;;
82130;Laerm;75912;50.450;9.816;2024-01-30T07:23:12;63.10;41.22;78.22;;
82130;Laerm;75912;50.450;9.816;2024-01-30T07:25:39;63.52;41.58;75.04;;
82130;Laerm;75912;50.450;9.816;2024-01-30T07:28:06;60.71;41.89;72.89;;
82130;Laerm;75912;50.450;9.816;2024-01-30T07:30:32;63.31;42.21;75.02;;
82130;Laerm;75912;50.450;9.816;2024-01-30T07:33:00;56.12;39.23;69.68;;
82130;Laerm;75912;50.450;9.816;2024-01-30T07:35:25;63.43;43.66;74.99;;
82130;Laerm;75912;50.450;9.816;2024-01-30T07:37:50;62.93;41.04;74.08;;
82130;Laerm;75912;50.450;9.816;2024-01-30T07:40:16;61.35;40.72;71.63;;
82130;Laerm;75912;50.450;9.816;2024-01-30T07:42:42;61.02;40.31;76.97;;
82130;Laerm;75912;50.450;9.816;2024-01-30T07:45:08;62.34;41.47;74.41;;
82130;Laerm;75912;50.450;9.816;2024-01-30T07:47:33;61.20;40.63;75.65;;
82130;Laerm;75912;50.450;9.816;2024-01-30T07:49:58;60.50;40.30;74.00;;
82130;Laerm;75912;50.450;9.816;2024-01-30T07:52:24;63.42;42.80;73.67;;
82130;Laerm;75912;50.450;9.816;2024-01-30T07:54:49;60.39;40.50;71.86;;
82130;Laerm;75912;50.450;9.816;2024-01-30T07:57:15;61.57;42.15;72.35;;
82130;Laerm;75912;50.450;9.816;2024-01-30T07:59:43;63.04;42.18;74.80;;
82130;Laerm;75912;50.450;9.816;2024-01-30T08:02:14;60.97;40.82;71.25;;
82130;Laerm;75912;50.450;9.816;2024-01-30T08:04:39;63.37;42.51;74.17;;
82130;Laerm;75912;50.450;9.816;2024-01-30T08:07:05;63.15;41.15;74.98;;
82130;Laerm;75912;50.450;9.816;2024-01-30T08:09:30;56.72;38.91;68.08;;
82130;Laerm;75912;50.450;9.816;2024-01-30T08:11:55;63.45;41.93;74.14;;
82130;Laerm;75912;50.450;9.816;2024-01-30T08:14:20;59.77;41.21;72.12;;
82130;Laerm;75912;50.450;9.816;2024-01-30T08:16:46;61.30;41.42;73.90;;
82130;Laerm;75912;50.450;9.816;2024-01-30T08:19:11;61.78;39.95;72.52;;
82130;Laerm;75912;50.450;9.816;2024-01-30T08:21:36;61.25;40.88;72.61;;
82130;Laerm;75912;50.450;9.816;2024-01-30T08:24:05;61.80;39.23;73.51;;
82130;Laerm;75912;50.450;9.816;2024-01-30T08:26:31;61.07;41.88;75.36;;
82130;Laerm;75912;50.450;9.816;2024-01-30T08:28:57;60.74;40.30;74.58;;
82130;Laerm;75912;50.450;9.816;2024-01-30T08:31:22;62.52;41.13;73.07;;
82130;Laerm;75912;50.450;9.816;2024-01-30T08:33:47;60.94;42.01;73.18;;
82130;Laerm;75912;50.450;9.816;2024-01-30T08:36:13;65.07;42.21;78.68;;
82130;Laerm;75912;50.450;9.816;2024-01-30T08:38:38;62.37;40.30;75.12;;
82130;Laerm;75912;50.450;9.816;2024-01-30T08:41:03;60.62;39.02;72.51;;
82130;Laerm;75912;50.450;9.816;2024-01-30T08:43:29;62.72;42.35;74.67;;
82130;Laerm;75912;50.450;9.816;2024-01-30T08:45:54;61.97;41.26;72.14;;
82130;Laerm;75912;50.450;9.816;2024-01-30T08:48:19;61.09;39.84;75.63;;
82130;Laerm;75912;50.450;9.816;2024-01-30T08:50:46;62.57;40.72;74.91;;
82130;Laerm;75912;50.450;9.816;2024-01-30T08:53:11;59.42;39.64;72.71;;
82130;Laerm;75912;50.450;9.816;2024-01-30T08:55:37;60.68;39.78;77.04;;
82130;Laerm;75912;50.450;9.816;2024-01-30T08:58:02;62.61;39.11;75.83;;
82130;Laerm;75912;50.450;9.816;2024-01-30T09:00:29;60.41;38.83;74.80;;
82130;Laerm;75912;50.450;9.816;2024-01-30T09:02:55;61.09;38.85;73.48;;
82130;Laerm;75912;50.450;9.816;2024-01-30T09:05:20;60.86;40.33;72.67;;
82130;Laerm;75912;50.450;9.816;2024-01-30T09:07:45;59.62;39.10;73.04;;
82130;Laerm;75912;50.450;9.816;2024-01-30T09:10:11;60.12;39.12;74.10;;
82130;Laerm;75912;50.450;9.816;2024-01-30T09:12:36;61.92;38.01;76.96;;
82130;Laerm;75912;50.450;9.816;2024-01-30T09:15:01;62.32;42.53;72.17;;
82130;Laerm;75912;50.450;9.816;2024-01-30T09:17:26;58.73;41.80;69.18;;
82130;Laerm;75912;50.450;9.816;2024-01-30T09:19:52;58.53;40.20;72.54;;
82130;Laerm;75912;50.450;9.816;2024-01-30T09:22:17;61.56;41.21;74.48;;
82130;Laerm;75912;50.450;9.816;2024-01-30T09:24:42;60.36;40.14;71.97;;
82130;Laerm;75912;50.450;9.816;2024-01-30T09:27:08;63.15;41.42;74.47;;
82130;Laerm;75912;50.450;9.816;2024-01-30T09:29:33;62.25;45.05;74.44;;
82130;Laerm;75912;50.450;9.816;2024-01-30T09:32:01;60.41;41.49;71.70;;
82130;Laerm;75912;50.450;9.816;2024-01-30T09:34:26;62.95;43.61;74.95;;
82130;Laerm;75912;50.450;9.816;2024-01-30T09:36:51;60.27;41.55;75.22;;
82130;Laerm;75912;50.450;9.816;2024-01-30T09:39:17;63.24;40.91;75.82;;
82130;Laerm;75912;50.450;9.816;2024-01-30T09:41:48;63.15;40.11;73.52;;
82130;Laerm;75912;50.450;9.816;2024-01-30T09:44:13;61.56;39.34;78.35;;
82130;Laerm;75912;50.450;9.816;2024-01-30T09:46:40;62.93;42.62;75.33;;
82130;Laerm;75912;50.450;9.816;2024-01-30T09:49:07;63.00;38.28;74.65;;
82130;Laerm;75912;50.450;9.816;2024-01-30T09:51:33;61.28;39.41;73.60;;
82130;Laerm;75912;50.450;9.816;2024-01-30T09:53:59;61.33;38.15;74.48;;
82130;Laerm;75912;50.450;9.816;2024-01-30T09:56:24;63.79;41.62;75.16;;
82130;Laerm;75912;50.450;9.816;2024-01-30T09:58:49;63.61;40.32;80.37;;
82130;Laerm;75912;50.450;9.816;2024-01-30T10:01:15;60.52;37.74;74.16;;
82130;Laerm;75912;50.450;9.816;2024-01-30T10:03:44;63.13;39.06;74.63;;
82130;Laerm;75912;50.450;9.816;2024-01-30T10:06:10;60.66;39.58;74.81;;
82130;Laerm;75912;50.450;9.816;2024-01-30T10:08:36;61.98;37.96;76.67;;
82130;Laerm;75912;50.450;9.816;2024-01-30T10:11:01;61.51;37.42;78.46;;
82130;Laerm;75912;50.450;9.816;2024-01-30T10:13:28;57.16;37.16;70.17;;
82130;Laerm;75912;50.450;9.816;2024-01-30T10:15:54;63.02;39.69;73.48;;
82130;Laerm;75912;50.450;9.816;2024-01-30T10:18:20;58.27;38.50;73.77;;
82130;Laerm;75912;50.450;9.816;2024-01-30T10:20:45;59.57;39.74;75.68;;
82130;Laerm;75912;50.450;9.816;2024-01-30T10:23:11;58.33;38.51;70.37;;
82130;Laerm;75912;50.450;9.816;2024-01-30T10:25:36;64.94;38.78;80.78;;
82130;Laerm;75912;50.450;9.816;2024-01-30T10:28:02;62.91;40.30;77.50;;
82130;Laerm;75912;50.450;9.816;2024-01-30T10:30:27;61.52;39.97;71.20;;
82130;Laerm;75912;50.450;9.816;2024-01-30T10:32:53;63.90;41.13;76.76;;
82130;Laerm;75912;50.450;9.816;2024-01-30T10:35:19;64.17;40.77;79.40;;
82130;Laerm;75912;50.450;9.816;2024-01-30T10:37:44;62.29;39.76;74.19;;
82130;Laerm;75912;50.450;9.816;2024-01-30T10:40:12;61.16;39.15;76.88;;
82130;Laerm;75912;50.450;9.816;2024-01-30T10:42:38;60.92;38.24;73.65;;
82130;Laerm;75912;50.450;9.816;2024-01-30T10:45:10;59.27;37.73;72.61;;
82130;Laerm;75912;50.450;9.816;2024-01-30T10:47:42;63.17;37.78;74.93;;
82130;Laerm;75912;50.450;9.816;2024-01-30T10:50:08;61.09;38.84;73.64;;
82130;Laerm;75912;50.450;9.816;2024-01-30T10:52:35;60.51;38.02;73.14;;
82130;Laerm;75912;50.450;9.816;2024-01-30T10:55:01;61.93;38.90;75.76;;
82130;Laerm;75912;50.450;9.816;2024-01-30T10:57:26;57.95;37.84;70.93;;
82130;Laerm;75912;50.450;9.816;2024-01-30T10:59:52;61.91;38.56;75.43;;
82130;Laerm;75912;50.450;9.816;2024-01-30T11:02:18;65.45;39.30;79.12;;
82130;Laerm;75912;50.450;9.816;2024-01-30T11:04:45;61.52;38.53;79.37;;
82130;Laerm;75912;50.450;9.816;2024-01-30T11:09:48;62.37;39.70;75.55;;
82130;Laerm;75912;50.450;9.816;2024-01-30T11:12:13;61.79;38.27;73.23;;
82130;Laerm;75912;50.450;9.816;2024-01-30T11:14:38;62.27;39.88;73.84;;
82130;Laerm;75912;50.450;9.816;2024-01-30T11:17:05;60.31;39.25;75.74;;
82130;Laerm;75912;50.450;9.816;2024-01-30T11:19:31;63.33;38.36;78.73;;
82130;Laerm;75912;50.450;9.816;2024-01-30T11:21:56;64.44;37.95;76.21;;
82130;Laerm;75912;50.450;9.816;2024-01-30T11:24:22;61.29;38.16;75.59;;
82130;Laerm;75912;50.450;9.816;2024-01-30T11:26:49;59.69;37.54;71.63;;
82130;Laerm;75912;50.450;9.816;2024-01-30T11:29:16;62.15;37.89;74.87;;
82130;Laerm;75912;50.450;9.816;2024-01-30T11:31:51;63.25;38.25;76.47;;
82130;Laerm;75912;50.450;9.816;2024-01-30T11:34:17;62.17;37.72;74.87;;
82130;Laerm;75912;50.450;9.816;2024-01-30T11:36:42;60.81;38.99;72.54;;
82130;Laerm;75912;50.450;9.816;2024-01-30T11:39:08;61.87;37.96;76.19;;
82130;Laerm;75912;50.450;9.816;2024-01-30T11:41:34;63.26;39.22;73.58;;
82130;Laerm;75912;50.450;9.816;2024-01-30T11:43:59;64.38;41.07;78.94;;
82130;Laerm;75912;50.450;9.816;2024-01-30T11:46:24;60.34;38.71;75.19;;
82130;Laerm;75912;50.450;9.816;2024-01-30T11:48:50;61.71;39.83;74.90;;
82130;Laerm;75912;50.450;9.816;2024-01-30T11:51:16;60.65;37.42;73.73;;
82130;Laerm;75912;50.450;9.816;2024-01-30T11:53:43;61.34;38.96;73.43;;
82130;Laerm;75912;50.450;9.816;2024-01-30T11:56:08;64.33;42.92;77.05;;
82130;Laerm;75912;50.450;9.816;2024-01-30T11:58:34;61.83;39.27;75.04;;
82130;Laerm;75912;50.450;9.816;2024-01-30T12:00:59;64.25;39.26;74.70;;
82130;Laerm;75912;50.450;9.816;2024-01-30T12:03:25;61.30;40.99;74.61;;
82130;Laerm;75912;50.450;9.816;2024-01-30T12:06:10;63.17;41.27;76.02;;
82130;Laerm;75912;50.450;9.816;2024-01-30T12:08:59;58.41;38.94;72.14;;
82130;Laerm;75912;50.450;9.816;2024-01-30T12:11:45;62.69;38.51;74.81;;
82130;Laerm;75912;50.450;9.816;2024-01-30T12:14:11;62.09;40.77;78.05;;
82130;Laerm;75912;50.450;9.816;2024-01-30T12:16:36;62.85;41.71;74.82;;
82130;Laerm;75912;50.450;9.816;2024-01-30T12:19:02;61.59;39.60;75.24;;
82130;Laerm;75912;50.450;9.816;2024-01-30T12:21:28;63.14;38.26;73.99;;
82130;Laerm;75912;50.450;9.816;2024-01-30T12:23:53;59.88;37.93;75.45;;
82130;Laerm;75912;50.450;9.816;2024-01-30T12:26:19;61.03;37.72;72.38;;
82130;Laerm;75912;50.450;9.816;2024-01-30T12:28:47;56.93;38.19;69.99;;
82130;Laerm;75912;50.450;9.816;2024-01-30T12:31:13;64.09;42.12;76.63;;
82130;Laerm;75912;50.450;9.816;2024-01-30T12:33:38;61.61;42.98;72.31;;
82130;Laerm;75912;50.450;9.816;2024-01-30T12:36:04;62.03;39.40;74.63;;
82130;Laerm;75912;50.450;9.816;2024-01-30T12:38:29;62.82;39.27;76.53;;
82130;Laerm;75912;50.450;9.816;2024-01-30T12:40:54;62.31;41.76;72.52;;
82130;Laerm;75912;50.450;9.816;2024-01-30T12:43:21;62.92;42.52;72.68;;
82130;Laerm;75912;50.450;9.816;2024-01-30T12:45:47;63.43;39.71;74.63;;
82130;Laerm;75912;50.450;9.816;2024-01-30T12:48:12;64.25;40.64;76.07;;
82130;Laerm;75912;50.450;9.816;2024-01-30T12:50:38;63.33;40.77;82.22;;
82130;Laerm;75912;50.450;9.816;2024-01-30T12:53:03;63.54;42.79;73.02;;
82130;Laerm;75912;50.450;9.816;2024-01-30T12:55:29;62.32;43.75;74.30;;
82130;Laerm;75912;50.450;9.816;2024-01-30T12:57:55;61.04;39.51;73.98;;
82130;Laerm;75912;50.450;9.816;2024-01-30T13:00:20;59.87;41.45;73.07;;
82130;Laerm;75912;50.450;9.816;2024-01-30T13:02:47;62.33;40.11;75.77;;
82130;Laerm;75912;50.450;9.816;2024-01-30T13:05:12;60.40;40.23;72.49;;
82130;Laerm;75912;50.450;9.816;2024-01-30T13:07:37;62.34;41.18;75.02;;
82130;Laerm;75912;50.450;9.816;2024-01-30T13:10:03;61.87;40.24;74.27;;
82130;Laerm;75912;50.450;9.816;2024-01-30T13:12:29;60.83;40.11;73.69;;
82130;Laerm;75912;50.450;9.816;2024-01-30T13:14:54;56.24;39.95;72.02;;
82130;Laerm;75912;50.450;9.816;2024-01-30T13:17:19;63.60;41.52;75.18;;
82130;Laerm;75912;50.450;9.816;2024-01-30T13:19:45;60.99;40.05;71.77;;
82130;Laerm;75912;50.450;9.816;2024-01-30T13:22:10;63.06;41.41;73.65;;
82130;Laerm;75912;50.450;9.816;2024-01-30T13:24:35;64.13;41.94;73.80;;
82130;Laerm;75912;50.450;9.816;2024-01-30T13:27:00;64.38;41.34;76.53;;
82130;Laerm;75912;50.450;9.816;2024-01-30T13:29:26;62.09;39.38;75.06;;
82130;Laerm;75912;50.450;9.816;2024-01-30T13:31:51;63.77;42.22;77.78;;
82130;Laerm;75912;50.450;9.816;2024-01-30T13:34:16;63.01;40.75;74.22;;
82130;Laerm;75912;50.450;9.816;2024-01-30T13:36:42;63.46;40.89;75.87;;
82130;Laerm;75912;50.450;9.816;2024-01-30T13:39:08;64.04;41.09;74.17;;